sensor_id;sensor_type;location;lat;lon;timestamp;temperature;humidity
41816;DHT22;27814;53.452;-6.180;2022-12-16T00:00:15;1.70;99.90
41816;DHT22;27814;53.452;-6.180;2022-12-16T00:02:43;1.70;99.90
41816;DHT22;27814;53.452;-6.180;2022-12-16T00:05:13;1.60;99.90
41816;DHT22;27814;53.452;-6.180;2022-12-16T00:07:41;1.70;99.90
41816;DHT22;27814;53.452;-6.180;2022-12-16T00:10:10;1.60;99.90
41816;DHT22;27814;53.452;-6.180;2022-12-16T00:12:38;1.60;99.90
41816;DHT22;27814;53.452;-6.180;2022-12-16T00:15:07;1.60;99.90
41816;DHT22;27814;53.452;-6.180;2022-12-16T00:17:36;1.50;99.90
41816;DHT22;27814;53.452;-6.180;2022-12-16T00:20:06;1.50;99.90
41816;DHT22;27814;53.452;-6.180;2022-12-16T00:22:37;1.50;99.90
41816;DHT22;27814;53.452;-6.180;2022-12-16T00:25:06;1.40;99.90
41816;DHT22;27814;53.452;-6.180;2022-12-16T00:27:35;1.40;99.90
41816;DHT22;27814;53.452;-6.180;2022-12-16T00:30:04;1.40;99.90
41816;DHT22;27814;53.452;-6.180;2022-12-16T00:32:32;1.40;99.90
41816;DHT22;27814;53.452;-6.180;2022-12-16T00:35:01;1.40;99.90
41816;DHT22;27814;53.452;-6.180;2022-12-16T00:37:29;1.40;99.90
41816;DHT22;27814;53.452;-6.180;2022-12-16T00:40:00;1.40;99.90
41816;DHT22;27814;53.452;-6.180;2022-12-16T00:42:28;1.40;99.90
41816;DHT22;27814;53.452;-6.180;2022-12-16T00:44:56;1.40;99.90
41816;DHT22;27814;53.452;-6.180;2022-12-16T00:47:25;1.40;99.90
41816;DHT22;27814;53.452;-6.180;2022-12-16T00:49:53;1.40;99.90
41816;DHT22;27814;53.452;-6.180;2022-12-16T00:52:21;1.40;99.90
41816;DHT22;27814;53.452;-6.180;2022-12-16T00:54:50;1.40;99.90
41816;DHT22;27814;53.452;-6.180;2022-12-16T00:57:22;1.40;99.90
41816;DHT22;27814;53.452;-6.180;2022-12-16T00:59:50;1.40;99.90
41816;DHT22;27814;53.452;-6.180;2022-12-16T01:02:19;1.40;99.90
41816;DHT22;27814;53.452;-6.180;2022-12-16T01:04:47;1.30;99.90
41816;DHT22;27814;53.452;-6.180;2022-12-16T01:07:16;1.30;99.90
41816;DHT22;27814;53.452;-6.180;2022-12-16T01:09:44;1.30;99.90
41816;DHT22;27814;53.452;-6.180;2022-12-16T01:12:12;1.30;99.90
41816;DHT22;27814;53.452;-6.180;2022-12-16T01:14:42;1.20;99.90
41816;DHT22;27814;53.452;-6.180;2022-12-16T01:17:11;1.20;99.90
41816;DHT22;27814;53.452;-6.180;2022-12-16T01:19:39;1.20;99.90
41816;DHT22;27814;53.452;-6.180;2022-12-16T01:22:07;1.20;99.90
41816;DHT22;27814;53.452;-6.180;2022-12-16T01:24:36;1.20;99.90
41816;DHT22;27814;53.452;-6.180;2022-12-16T01:27:04;1.20;99.90
41816;DHT22;27814;53.452;-6.180;2022-12-16T01:29:34;1.30;99.90
41816;DHT22;27814;53.452;-6.180;2022-12-16T01:32:04;1.30;99.90
41816;DHT22;27814;53.452;-6.180;2022-12-16T01:34:34;1.20;99.90
41816;DHT22;27814;53.452;-6.180;2022-12-16T01:37:02;1.20;99.90
41816;DHT22;27814;53.452;-6.180;2022-12-16T01:39:30;1.20;99.90
41816;DHT22;27814;53.452;-6.180;2022-12-16T01:41:59;1.30;99.90
41816;DHT22;27814;53.452;-6.180;2022-12-16T01:44:27;1.20;99.90
41816;DHT22;27814;53.452;-6.180;2022-12-16T01:46:59;1.20;99.90
41816;DHT22;27814;53.452;-6.180;2022-12-16T01:49:36;1.20;99.90
41816;DHT22;27814;53.452;-6.180;2022-12-16T01:52:07;1.20;99.90
41816;DHT22;27814;53.452;-6.180;2022-12-16T01:54:40;1.20;99.90
41816;DHT22;27814;53.452;-6.180;2022-12-16T01:57:12;1.20;99.90
41816;DHT22;27814;53.452;-6.180;2022-12-16T01:59:44;1.10;99.90
41816;DHT22;27814;53.452;-6.180;2022-12-16T02:02:14;1.10;99.90
41816;DHT22;27814;53.452;-6.180;2022-12-16T02:04:43;1.10;99.90
41816;DHT22;27814;53.452;-6.180;2022-12-16T02:07:26;1.10;99.90
41816;DHT22;27814;53.452;-6.180;2022-12-16T02:09:54;1.10;99.90
41816;DHT22;27814;53.452;-6.180;2022-12-16T02:12:28;1.10;99.90
41816;DHT22;27814;53.452;-6.180;2022-12-16T02:15:22;1.10;99.90
41816;DHT22;27814;53.452;-6.180;2022-12-16T02:17:57;1.10;99.90
41816;DHT22;27814;53.452;-6.180;2022-12-16T02:23:53;1.10;99.90
41816;DHT22;27814;53.452;-6.180;2022-12-16T02:29:38;1.10;99.90
41816;DHT22;27814;53.452;-6.180;2022-12-16T02:32:18;1.10;99.90
41816;DHT22;27814;53.452;-6.180;2022-12-16T02:34:52;1.10;99.90
41816;DHT22;27814;53.452;-6.180;2022-12-16T02:37:31;1.10;99.90
41816;DHT22;27814;53.452;-6.180;2022-12-16T02:40:08;1.10;99.90
41816;DHT22;27814;53.452;-6.180;2022-12-16T02:42:44;1.10;99.90
41816;DHT22;27814;53.452;-6.180;2022-12-16T02:45:16;1.20;99.90
41816;DHT22;27814;53.452;-6.180;2022-12-16T02:47:46;1.20;99.90
41816;DHT22;27814;53.452;-6.180;2022-12-16T02:50:17;1.20;99.90
41816;DHT22;27814;53.452;-6.180;2022-12-16T02:52:48;1.20;99.90
41816;DHT22;27814;53.452;-6.180;2022-12-16T02:55:18;1.20;99.90
41816;DHT22;27814;53.452;-6.180;2022-12-16T02:58:01;1.10;99.90
41816;DHT22;27814;53.452;-6.180;2022-12-16T03:00:39;1.10;99.90
41816;DHT22;27814;53.452;-6.180;2022-12-16T03:03:19;1.10;99.90
41816;DHT22;27814;53.452;-6.180;2022-12-16T03:05:49;1.10;99.90
41816;DHT22;27814;53.452;-6.180;2022-12-16T03:08:21;1.10;99.90
41816;DHT22;27814;53.452;-6.180;2022-12-16T03:10:54;1.10;99.90
41816;DHT22;27814;53.452;-6.180;2022-12-16T03:13:24;1.10;99.90
41816;DHT22;27814;53.452;-6.180;2022-12-16T03:15:56;1.10;99.90
41816;DHT22;27814;53.452;-6.180;2022-12-16T03:18:27;1.10;99.90
41816;DHT22;27814;53.452;-6.180;2022-12-16T03:20:59;1.10;99.90
41816;DHT22;27814;53.452;-6.180;2022-12-16T03:23:31;1.10;99.90
41816;DHT22;27814;53.452;-6.180;2022-12-16T03:26:04;1.10;99.90
41816;DHT22;27814;53.452;-6.180;2022-12-16T03:28:42;1.10;99.90
41816;DHT22;27814;53.452;-6.180;2022-12-16T03:31:18;1.10;99.90
41816;DHT22;27814;53.452;-6.180;2022-12-16T03:33:58;1.10;99.90
41816;DHT22;27814;53.452;-6.180;2022-12-16T03:36:29;1.10;99.90
41816;DHT22;27814;53.452;-6.180;2022-12-16T03:39:00;1.00;99.90
41816;DHT22;27814;53.452;-6.180;2022-12-16T03:41:31;1.00;99.90
41816;DHT22;27814;53.452;-6.180;2022-12-16T03:43:59;1.00;99.90
41816;DHT22;27814;53.452;-6.180;2022-12-16T03:46:28;1.00;99.90
41816;DHT22;27814;53.452;-6.180;2022-12-16T03:48:58;0.90;99.90
41816;DHT22;27814;53.452;-6.180;2022-12-16T03:51:27;0.90;99.90
41816;DHT22;27814;53.452;-6.180;2022-12-16T03:53:55;0.90;99.90
41816;DHT22;27814;53.452;-6.180;2022-12-16T03:56:23;0.90;99.90
41816;DHT22;27814;53.452;-6.180;2022-12-16T03:58:52;0.90;99.90
41816;DHT22;27814;53.452;-6.180;2022-12-16T04:01:20;0.80;99.90
41816;DHT22;27814;53.452;-6.180;2022-12-16T04:03:49;0.80;99.90
41816;DHT22;27814;53.452;-6.180;2022-12-16T04:06:19;0.80;99.90
41816;DHT22;27814;53.452;-6.180;2022-12-16T04:08:47;0.80;99.90
41816;DHT22;27814;53.452;-6.180;2022-12-16T04:11:16;0.90;99.90
41816;DHT22;27814;53.452;-6.180;2022-12-16T04:14:01;0.90;99.90
41816;DHT22;27814;53.452;-6.180;2022-12-16T04:16:47;0.90;99.90
41816;DHT22;27814;53.452;-6.180;2022-12-16T04:19:36;0.90;99.90
41816;DHT22;27814;53.452;-6.180;2022-12-16T04:22:26;0.90;99.90
41816;DHT22;27814;53.452;-6.180;2022-12-16T04:25:16;1.00;99.90
41816;DHT22;27814;53.452;-6.180;2022-12-16T04:27:45;1.00;99.90
41816;DHT22;27814;53.452;-6.180;2022-12-16T04:30:14;1.00;99.90
41816;DHT22;27814;53.452;-6.180;2022-12-16T04:32:48;1.00;99.90
41816;DHT22;27814;53.452;-6.180;2022-12-16T04:35:35;1.00;99.90
41816;DHT22;27814;53.452;-6.180;2022-12-16T04:38:22;1.00;99.90
41816;DHT22;27814;53.452;-6.180;2022-12-16T04:41:08;1.00;99.90
41816;DHT22;27814;53.452;-6.180;2022-12-16T04:43:54;1.00;99.90
41816;DHT22;27814;53.452;-6.180;2022-12-16T04:46:40;1.00;99.90
41816;DHT22;27814;53.452;-6.180;2022-12-16T04:49:25;1.10;99.90
41816;DHT22;27814;53.452;-6.180;2022-12-16T04:52:11;1.10;99.90
41816;DHT22;27814;53.452;-6.180;2022-12-16T04:54:59;1.00;99.90
41816;DHT22;27814;53.452;-6.180;2022-12-16T04:57:47;1.00;99.90
41816;DHT22;27814;53.452;-6.180;2022-12-16T05:00:33;1.00;99.90
41816;DHT22;27814;53.452;-6.180;2022-12-16T05:03:18;0.90;99.90
41816;DHT22;27814;53.452;-6.180;2022-12-16T05:06:04;0.90;99.90
41816;DHT22;27814;53.452;-6.180;2022-12-16T05:08:50;0.90;99.90
41816;DHT22;27814;53.452;-6.180;2022-12-16T05:11:37;0.80;99.90
41816;DHT22;27814;53.452;-6.180;2022-12-16T05:14:23;0.80;99.90
41816;DHT22;27814;53.452;-6.180;2022-12-16T05:17:09;0.80;99.90
41816;DHT22;27814;53.452;-6.180;2022-12-16T05:19:54;0.80;99.90
41816;DHT22;27814;53.452;-6.180;2022-12-16T05:22:40;0.90;99.90
41816;DHT22;27814;53.452;-6.180;2022-12-16T05:25:25;0.80;99.90
41816;DHT22;27814;53.452;-6.180;2022-12-16T05:28:12;0.80;99.90
41816;DHT22;27814;53.452;-6.180;2022-12-16T05:30:58;0.80;99.90
41816;DHT22;27814;53.452;-6.180;2022-12-16T05:33:44;0.80;99.90
41816;DHT22;27814;53.452;-6.180;2022-12-16T05:36:29;0.80;99.90
41816;DHT22;27814;53.452;-6.180;2022-12-16T05:39:15;0.80;99.90
41816;DHT22;27814;53.452;-6.180;2022-12-16T05:41:57;0.80;99.90
41816;DHT22;27814;53.452;-6.180;2022-12-16T05:44:44;0.80;99.90
41816;DHT22;27814;53.452;-6.180;2022-12-16T05:47:30;0.80;99.90
41816;DHT22;27814;53.452;-6.180;2022-12-16T05:50:15;0.80;99.90
41816;DHT22;27814;53.452;-6.180;2022-12-16T05:53:01;0.80;99.90
41816;DHT22;27814;53.452;-6.180;2022-12-16T05:55:46;0.80;99.90
41816;DHT22;27814;53.452;-6.180;2022-12-16T05:58:32;0.70;99.90
41816;DHT22;27814;53.452;-6.180;2022-12-16T06:01:19;0.70;99.90
41816;DHT22;27814;53.452;-6.180;2022-12-16T06:04:05;0.70;99.90
41816;DHT22;27814;53.452;-6.180;2022-12-16T06:06:50;0.70;99.90
41816;DHT22;27814;53.452;-6.180;2022-12-16T06:09:36;0.70;99.90
41816;DHT22;27814;53.452;-6.180;2022-12-16T06:12:23;0.70;99.90
41816;DHT22;27814;53.452;-6.180;2022-12-16T06:15:09;0.70;99.90
41816;DHT22;27814;53.452;-6.180;2022-12-16T06:17:56;0.70;99.90
41816;DHT22;27814;53.452;-6.180;2022-12-16T06:20:42;0.70;99.90
41816;DHT22;27814;53.452;-6.180;2022-12-16T06:23:28;0.70;99.90
41816;DHT22;27814;53.452;-6.180;2022-12-16T06:26:13;0.70;99.90
41816;DHT22;27814;53.452;-6.180;2022-12-16T06:28:59;0.70;99.90
41816;DHT22;27814;53.452;-6.180;2022-12-16T06:31:45;0.70;99.90
41816;DHT22;27814;53.452;-6.180;2022-12-16T06:34:37;0.70;99.90
41816;DHT22;27814;53.452;-6.180;2022-12-16T06:37:23;0.70;99.90
41816;DHT22;27814;53.452;-6.180;2022-12-16T06:40:09;0.70;99.90
41816;DHT22;27814;53.452;-6.180;2022-12-16T06:42:55;0.70;99.90
41816;DHT22;27814;53.452;-6.180;2022-12-16T06:45:41;0.70;99.90
41816;DHT22;27814;53.452;-6.180;2022-12-16T06:48:26;0.70;99.90
41816;DHT22;27814;53.452;-6.180;2022-12-16T06:51:13;0.70;99.90
41816;DHT22;27814;53.452;-6.180;2022-12-16T06:54:00;0.80;99.90
41816;DHT22;27814;53.452;-6.180;2022-12-16T06:56:45;0.80;99.90
41816;DHT22;27814;53.452;-6.180;2022-12-16T06:59:31;0.80;99.90
41816;DHT22;27814;53.452;-6.180;2022-12-16T07:02:17;0.80;99.90
41816;DHT22;27814;53.452;-6.180;2022-12-16T07:05:03;0.90;99.90
41816;DHT22;27814;53.452;-6.180;2022-12-16T07:07:50;0.90;99.90
41816;DHT22;27814;53.452;-6.180;2022-12-16T07:10:36;0.90;99.90
41816;DHT22;27814;53.452;-6.180;2022-12-16T07:13:29;0.90;99.90
41816;DHT22;27814;53.452;-6.180;2022-12-16T07:16:14;0.90;99.90
41816;DHT22;27814;53.452;-6.180;2022-12-16T07:18:56;0.90;99.90
41816;DHT22;27814;53.452;-6.180;2022-12-16T07:21:42;1.00;99.90
41816;DHT22;27814;53.452;-6.180;2022-12-16T07:24:29;1.00;99.90
41816;DHT22;27814;53.452;-6.180;2022-12-16T07:27:14;1.00;99.90
41816;DHT22;27814;53.452;-6.180;2022-12-16T07:29:59;1.00;99.90
41816;DHT22;27814;53.452;-6.180;2022-12-16T07:32:48;1.00;99.90
41816;DHT22;27814;53.452;-6.180;2022-12-16T07:35:34;1.00;99.90
41816;DHT22;27814;53.452;-6.180;2022-12-16T07:38:20;1.00;99.90
41816;DHT22;27814;53.452;-6.180;2022-12-16T07:41:07;1.00;99.90
41816;DHT22;27814;53.452;-6.180;2022-12-16T07:43:53;1.10;99.90
41816;DHT22;27814;53.452;-6.180;2022-12-16T07:46:39;1.10;99.90
41816;DHT22;27814;53.452;-6.180;2022-12-16T07:49:25;1.10;99.90
41816;DHT22;27814;53.452;-6.180;2022-12-16T07:52:10;1.10;99.90
41816;DHT22;27814;53.452;-6.180;2022-12-16T07:54:56;1.10;99.90
41816;DHT22;27814;53.452;-6.180;2022-12-16T07:57:48;1.20;99.90
41816;DHT22;27814;53.452;-6.180;2022-12-16T08:00:33;1.20;99.90
41816;DHT22;27814;53.452;-6.180;2022-12-16T08:03:22;1.20;99.90
41816;DHT22;27814;53.452;-6.180;2022-12-16T08:06:07;1.20;99.90
41816;DHT22;27814;53.452;-6.180;2022-12-16T08:08:53;1.20;99.90
41816;DHT22;27814;53.452;-6.180;2022-12-16T08:11:39;1.20;99.90
41816;DHT22;27814;53.452;-6.180;2022-12-16T08:14:26;1.20;99.90
41816;DHT22;27814;53.452;-6.180;2022-12-16T08:17:12;1.20;99.90
41816;DHT22;27814;53.452;-6.180;2022-12-16T08:19:57;1.20;99.90
41816;DHT22;27814;53.452;-6.180;2022-12-16T08:22:43;1.20;99.90
41816;DHT22;27814;53.452;-6.180;2022-12-16T08:25:28;1.30;99.90
41816;DHT22;27814;53.452;-6.180;2022-12-16T08:28:14;1.20;99.90
41816;DHT22;27814;53.452;-6.180;2022-12-16T08:31:01;1.20;99.90
41816;DHT22;27814;53.452;-6.180;2022-12-16T08:33:47;1.30;99.90
41816;DHT22;27814;53.452;-6.180;2022-12-16T08:36:33;1.30;99.90
41816;DHT22;27814;53.452;-6.180;2022-12-16T08:39:19;1.30;99.90
41816;DHT22;27814;53.452;-6.180;2022-12-16T08:42:05;1.30;99.90
41816;DHT22;27814;53.452;-6.180;2022-12-16T08:44:50;1.30;99.90
41816;DHT22;27814;53.452;-6.180;2022-12-16T08:47:37;1.40;99.90
41816;DHT22;27814;53.452;-6.180;2022-12-16T08:50:23;1.40;99.90
41816;DHT22;27814;53.452;-6.180;2022-12-16T08:53:20;1.40;99.90
41816;DHT22;27814;53.452;-6.180;2022-12-16T08:56:06;1.40;99.90
41816;DHT22;27814;53.452;-6.180;2022-12-16T08:58:51;1.40;99.90
41816;DHT22;27814;53.452;-6.180;2022-12-16T09:01:37;1.40;99.90
41816;DHT22;27814;53.452;-6.180;2022-12-16T09:04:22;1.40;99.90
41816;DHT22;27814;53.452;-6.180;2022-12-16T09:07:08;1.40;99.90
41816;DHT22;27814;53.452;-6.180;2022-12-16T09:09:54;1.40;99.90
41816;DHT22;27814;53.452;-6.180;2022-12-16T09:12:40;1.40;99.90
41816;DHT22;27814;53.452;-6.180;2022-12-16T09:15:25;1.50;99.90
41816;DHT22;27814;53.452;-6.180;2022-12-16T09:18:11;1.50;99.90
41816;DHT22;27814;53.452;-6.180;2022-12-16T09:20:59;1.60;99.90
41816;DHT22;27814;53.452;-6.180;2022-12-16T09:23:46;1.60;99.90
41816;DHT22;27814;53.452;-6.180;2022-12-16T09:26:32;1.60;99.90
41816;DHT22;27814;53.452;-6.180;2022-12-16T09:29:17;1.60;99.90
41816;DHT22;27814;53.452;-6.180;2022-12-16T09:32:10;1.70;99.90
41816;DHT22;27814;53.452;-6.180;2022-12-16T09:34:56;1.70;99.90
41816;DHT22;27814;53.452;-6.180;2022-12-16T09:37:46;1.80;99.90
41816;DHT22;27814;53.452;-6.180;2022-12-16T09:40:32;1.80;99.90
41816;DHT22;27814;53.452;-6.180;2022-12-16T09:43:34;1.90;99.90
41816;DHT22;27814;53.452;-6.180;2022-12-16T09:46:32;1.90;99.90
41816;DHT22;27814;53.452;-6.180;2022-12-16T09:49:40;2.00;99.90
41816;DHT22;27814;53.452;-6.180;2022-12-16T09:52:38;2.00;99.90
41816;DHT22;27814;53.452;-6.180;2022-12-16T09:55:30;2.10;99.90
41816;DHT22;27814;53.452;-6.180;2022-12-16T09:58:18;2.10;99.90
41816;DHT22;27814;53.452;-6.180;2022-12-16T10:01:05;2.20;99.90
41816;DHT22;27814;53.452;-6.180;2022-12-16T10:03:51;2.20;99.90
41816;DHT22;27814;53.452;-6.180;2022-12-16T10:06:43;2.30;99.90
41816;DHT22;27814;53.452;-6.180;2022-12-16T10:09:35;2.40;99.90
41816;DHT22;27814;53.452;-6.180;2022-12-16T10:12:35;2.40;99.90
41816;DHT22;27814;53.452;-6.180;2022-12-16T10:15:28;2.50;99.90
41816;DHT22;27814;53.452;-6.180;2022-12-16T10:18:24;2.50;99.90
41816;DHT22;27814;53.452;-6.180;2022-12-16T10:21:19;2.50;99.90
41816;DHT22;27814;53.452;-6.180;2022-12-16T10:24:14;2.50;99.90
41816;DHT22;27814;53.452;-6.180;2022-12-16T10:27:08;2.60;99.90
41816;DHT22;27814;53.452;-6.180;2022-12-16T10:29:59;2.60;99.90
41816;DHT22;27814;53.452;-6.180;2022-12-16T10:32:47;2.70;99.90
41816;DHT22;27814;53.452;-6.180;2022-12-16T10:35:37;2.70;99.90
41816;DHT22;27814;53.452;-6.180;2022-12-16T10:38:30;2.70;99.90
41816;DHT22;27814;53.452;-6.180;2022-12-16T10:41:21;2.80;99.90
41816;DHT22;27814;53.452;-6.180;2022-12-16T10:44:15;2.80;99.90
41816;DHT22;27814;53.452;-6.180;2022-12-16T10:47:04;2.80;99.90
41816;DHT22;27814;53.452;-6.180;2022-12-16T10:49:53;2.90;99.90
41816;DHT22;27814;53.452;-6.180;2022-12-16T10:52:56;2.90;99.90
41816;DHT22;27814;53.452;-6.180;2022-12-16T10:55:53;2.90;99.90
41816;DHT22;27814;53.452;-6.180;2022-12-16T10:58:45;2.90;99.90
41816;DHT22;27814;53.452;-6.180;2022-12-16T11:01:32;2.90;99.90
41816;DHT22;27814;53.452;-6.180;2022-12-16T11:04:34;3.00;99.90
41816;DHT22;27814;53.452;-6.180;2022-12-16T11:07:29;3.00;99.90
41816;DHT22;27814;53.452;-6.180;2022-12-16T11:10:30;3.00;99.90
41816;DHT22;27814;53.452;-6.180;2022-12-16T11:13:22;3.10;99.90
41816;DHT22;27814;53.452;-6.180;2022-12-16T11:16:12;3.10;99.90
41816;DHT22;27814;53.452;-6.180;2022-12-16T11:18:59;3.20;99.90
41816;DHT22;27814;53.452;-6.180;2022-12-16T11:21:46;3.20;99.90
41816;DHT22;27814;53.452;-6.180;2022-12-16T11:24:33;3.30;99.90
41816;DHT22;27814;53.452;-6.180;2022-12-16T11:27:24;3.30;99.90
41816;DHT22;27814;53.452;-6.180;2022-12-16T11:30:19;3.30;99.90
41816;DHT22;27814;53.452;-6.180;2022-12-16T11:33:11;3.40;99.90
41816;DHT22;27814;53.452;-6.180;2022-12-16T11:36:09;3.40;99.90
41816;DHT22;27814;53.452;-6.180;2022-12-16T11:38:53;3.50;99.90
41816;DHT22;27814;53.452;-6.180;2022-12-16T11:41:41;3.50;99.90
41816;DHT22;27814;53.452;-6.180;2022-12-16T11:44:33;3.50;99.90
41816;DHT22;27814;53.452;-6.180;2022-12-16T11:47:30;3.60;99.90
41816;DHT22;27814;53.452;-6.180;2022-12-16T11:50:26;3.60;99.90
41816;DHT22;27814;53.452;-6.180;2022-12-16T11:53:25;3.60;99.90
41816;DHT22;27814;53.452;-6.180;2022-12-16T11:56:19;3.60;99.90
41816;DHT22;27814;53.452;-6.180;2022-12-16T11:59:10;3.70;99.90
41816;DHT22;27814;53.452;-6.180;2022-12-16T12:02:02;3.70;99.90
41816;DHT22;27814;53.452;-6.180;2022-12-16T12:04:49;3.80;99.90
41816;DHT22;27814;53.452;-6.180;2022-12-16T12:07:38;3.80;99.90
41816;DHT22;27814;53.452;-6.180;2022-12-16T12:10:53;3.80;99.90
41816;DHT22;27814;53.452;-6.180;2022-12-16T12:13:51;3.90;99.90
41816;DHT22;27814;53.452;-6.180;2022-12-16T12:16:48;3.90;99.90
41816;DHT22;27814;53.452;-6.180;2022-12-16T12:19:39;4.00;99.90
41816;DHT22;27814;53.452;-6.180;2022-12-16T12:22:33;4.00;99.90
41816;DHT22;27814;53.452;-6.180;2022-12-16T12:25:23;4.00;99.90
41816;DHT22;27814;53.452;-6.180;2022-12-16T12:28:22;4.00;99.90
41816;DHT22;27814;53.452;-6.180;2022-12-16T12:31:21;4.10;99.90
41816;DHT22;27814;53.452;-6.180;2022-12-16T12:34:14;4.10;99.90
41816;DHT22;27814;53.452;-6.180;2022-12-16T12:37:11;4.10;99.90
41816;DHT22;27814;53.452;-6.180;2022-12-16T12:40:02;4.10;99.90
41816;DHT22;27814;53.452;-6.180;2022-12-16T12:42:55;4.10;99.90
41816;DHT22;27814;53.452;-6.180;2022-12-16T12:45:49;4.10;99.90
41816;DHT22;27814;53.452;-6.180;2022-12-16T12:48:43;4.10;99.90
41816;DHT22;27814;53.452;-6.180;2022-12-16T12:51:37;4.10;99.90
41816;DHT22;27814;53.452;-6.180;2022-12-16T12:54:32;4.10;99.90
41816;DHT22;27814;53.452;-6.180;2022-12-16T12:57:22;4.10;99.90
41816;DHT22;27814;53.452;-6.180;2022-12-16T13:00:14;4.10;99.90
41816;DHT22;27814;53.452;-6.180;2022-12-16T13:03:05;4.10;99.90
41816;DHT22;27814;53.452;-6.180;2022-12-16T13:05:53;4.10;99.90
41816;DHT22;27814;53.452;-6.180;2022-12-16T13:08:51;4.10;99.90
41816;DHT22;27814;53.452;-6.180;2022-12-16T13:11:39;4.20;99.90
41816;DHT22;27814;53.452;-6.180;2022-12-16T13:15:02;4.20;99.90
41816;DHT22;27814;53.452;-6.180;2022-12-16T13:18:20;4.20;99.90
41816;DHT22;27814;53.452;-6.180;2022-12-16T13:27:47;4.20;99.90
41816;DHT22;27814;53.452;-6.180;2022-12-16T13:30:37;4.30;99.90
41816;DHT22;27814;53.452;-6.180;2022-12-16T13:33:26;4.30;99.90
41816;DHT22;27814;53.452;-6.180;2022-12-16T13:36:14;4.30;99.90
41816;DHT22;27814;53.452;-6.180;2022-12-16T13:39:18;4.40;99.90
41816;DHT22;27814;53.452;-6.180;2022-12-16T13:42:29;4.40;99.90
41816;DHT22;27814;53.452;-6.180;2022-12-16T13:45:41;4.40;99.90
41816;DHT22;27814;53.452;-6.180;2022-12-16T13:48:34;4.50;99.90
41816;DHT22;27814;53.452;-6.180;2022-12-16T13:55:02;4.60;99.90
41816;DHT22;27814;53.452;-6.180;2022-12-16T13:58:03;4.60;99.90
41816;DHT22;27814;53.452;-6.180;2022-12-16T14:01:03;4.60;99.90
41816;DHT22;27814;53.452;-6.180;2022-12-16T14:03:52;4.70;99.90
41816;DHT22;27814;53.452;-6.180;2022-12-16T14:06:39;4.70;99.90
41816;DHT22;27814;53.452;-6.180;2022-12-16T14:09:32;4.70;99.90
41816;DHT22;27814;53.452;-6.180;2022-12-16T14:12:31;4.70;99.90
41816;DHT22;27814;53.452;-6.180;2022-12-16T14:15:26;4.70;99.90
41816;DHT22;27814;53.452;-6.180;2022-12-16T14:18:33;4.70;99.90
41816;DHT22;27814;53.452;-6.180;2022-12-16T14:21:24;4.80;99.90
41816;DHT22;27814;53.452;-6.180;2022-12-16T14:24:19;4.70;99.90
41816;DHT22;27814;53.452;-6.180;2022-12-16T14:27:13;4.70;99.90
41816;DHT22;27814;53.452;-6.180;2022-12-16T14:30:00;4.70;99.90
41816;DHT22;27814;53.452;-6.180;2022-12-16T14:32:46;4.70;99.90
41816;DHT22;27814;53.452;-6.180;2022-12-16T14:35:33;4.70;99.90
41816;DHT22;27814;53.452;-6.180;2022-12-16T14:38:24;4.70;99.90
41816;DHT22;27814;53.452;-6.180;2022-12-16T14:41:11;4.70;99.90
41816;DHT22;27814;53.452;-6.180;2022-12-16T14:43:58;4.70;99.90
41816;DHT22;27814;53.452;-6.180;2022-12-16T14:46:48;4.70;99.90
41816;DHT22;27814;53.452;-6.180;2022-12-16T14:49:35;4.70;99.90
41816;DHT22;27814;53.452;-6.180;2022-12-16T14:52:24;4.70;99.90
41816;DHT22;27814;53.452;-6.180;2022-12-16T14:55:13;4.80;99.90
41816;DHT22;27814;53.452;-6.180;2022-12-16T14:58:07;4.80;99.90
41816;DHT22;27814;53.452;-6.180;2022-12-16T15:00:56;4.80;99.90
41816;DHT22;27814;53.452;-6.180;2022-12-16T15:03:44;4.80;99.90
41816;DHT22;27814;53.452;-6.180;2022-12-16T15:06:33;4.90;99.90
41816;DHT22;27814;53.452;-6.180;2022-12-16T15:09:24;4.90;99.90
41816;DHT22;27814;53.452;-6.180;2022-12-16T15:12:13;4.80;99.90
41816;DHT22;27814;53.452;-6.180;2022-12-16T15:15:03;4.80;99.90
41816;DHT22;27814;53.452;-6.180;2022-12-16T15:17:52;4.70;99.90
41816;DHT22;27814;53.452;-6.180;2022-12-16T15:20:49;4.70;99.90
41816;DHT22;27814;53.452;-6.180;2022-12-16T15:23:39;4.60;99.90
41816;DHT22;27814;53.452;-6.180;2022-12-16T15:26:28;4.50;99.90
41816;DHT22;27814;53.452;-6.180;2022-12-16T15:29:28;4.50;99.90
41816;DHT22;27814;53.452;-6.180;2022-12-16T15:32:32;4.50;99.90
41816;DHT22;27814;53.452;-6.180;2022-12-16T15:35:26;4.40;99.90
41816;DHT22;27814;53.452;-6.180;2022-12-16T15:38:21;4.40;99.90
41816;DHT22;27814;53.452;-6.180;2022-12-16T15:41:20;4.40;99.90
41816;DHT22;27814;53.452;-6.180;2022-12-16T15:44:15;4.40;99.90
41816;DHT22;27814;53.452;-6.180;2022-12-16T15:47:01;4.30;99.90
41816;DHT22;27814;53.452;-6.180;2022-12-16T15:49:47;4.30;99.90
41816;DHT22;27814;53.452;-6.180;2022-12-16T15:52:36;4.30;99.90
41816;DHT22;27814;53.452;-6.180;2022-12-16T15:55:28;4.30;99.90
41816;DHT22;27814;53.452;-6.180;2022-12-16T15:58:20;4.20;99.90
41816;DHT22;27814;53.452;-6.180;2022-12-16T16:01:07;4.20;99.90
41816;DHT22;27814;53.452;-6.180;2022-12-16T16:03:55;4.20;99.90
41816;DHT22;27814;53.452;-6.180;2022-12-16T16:06:44;4.20;99.90
41816;DHT22;27814;53.452;-6.180;2022-12-16T16:09:32;4.20;99.90
41816;DHT22;27814;53.452;-6.180;2022-12-16T16:12:19;4.10;99.90
41816;DHT22;27814;53.452;-6.180;2022-12-16T16:15:08;4.10;99.90
41816;DHT22;27814;53.452;-6.180;2022-12-16T16:17:58;4.10;99.90
41816;DHT22;27814;53.452;-6.180;2022-12-16T16:20:44;4.10;99.90
41816;DHT22;27814;53.452;-6.180;2022-12-16T16:23:30;4.00;99.90
41816;DHT22;27814;53.452;-6.180;2022-12-16T16:26:19;4.00;99.90
41816;DHT22;27814;53.452;-6.180;2022-12-16T16:29:05;4.00;99.90
41816;DHT22;27814;53.452;-6.180;2022-12-16T16:31:51;4.00;99.90
41816;DHT22;27814;53.452;-6.180;2022-12-16T16:34:39;3.90;99.90
41816;DHT22;27814;53.452;-6.180;2022-12-16T16:37:24;3.90;99.90
41816;DHT22;27814;53.452;-6.180;2022-12-16T16:40:17;3.90;99.90
41816;DHT22;27814;53.452;-6.180;2022-12-16T16:43:03;3.90;99.90
41816;DHT22;27814;53.452;-6.180;2022-12-16T16:45:53;3.90;99.90
41816;DHT22;27814;53.452;-6.180;2022-12-16T16:48:39;4.00;99.90
41816;DHT22;27814;53.452;-6.180;2022-12-16T16:51:27;3.90;99.90
41816;DHT22;27814;53.452;-6.180;2022-12-16T16:54:13;3.90;99.90
41816;DHT22;27814;53.452;-6.180;2022-12-16T16:56:59;3.90;99.90
41816;DHT22;27814;53.452;-6.180;2022-12-16T16:59:45;3.90;99.90
41816;DHT22;27814;53.452;-6.180;2022-12-16T17:02:31;3.80;99.90
41816;DHT22;27814;53.452;-6.180;2022-12-16T17:05:17;3.80;99.90
41816;DHT22;27814;53.452;-6.180;2022-12-16T17:08:04;3.90;99.90
41816;DHT22;27814;53.452;-6.180;2022-12-16T17:10:46;3.80;99.90
41816;DHT22;27814;53.452;-6.180;2022-12-16T17:13:32;3.80;99.90
41816;DHT22;27814;53.452;-6.180;2022-12-16T17:16:18;3.80;99.90
41816;DHT22;27814;53.452;-6.180;2022-12-16T17:19:04;3.80;99.90
41816;DHT22;27814;53.452;-6.180;2022-12-16T17:21:49;3.80;99.90
41816;DHT22;27814;53.452;-6.180;2022-12-16T17:24:37;3.80;99.90
41816;DHT22;27814;53.452;-6.180;2022-12-16T17:27:24;3.80;99.90
41816;DHT22;27814;53.452;-6.180;2022-12-16T17:30:15;3.80;99.90
41816;DHT22;27814;53.452;-6.180;2022-12-16T17:33:10;3.90;99.90
41816;DHT22;27814;53.452;-6.180;2022-12-16T17:35:57;3.90;99.90